createdAt,value
2023-01-28T00:01:48.904Z,3.60
2023-01-28T00:04:16.927Z,3.50
2023-01-28T00:06:45.069Z,3.50
2023-01-28T00:09:13.233Z,3.50
2023-01-28T00:11:41.220Z,3.40
2023-01-28T00:14:09.302Z,3.40
2023-01-28T00:16:37.260Z,3.50
2023-01-28T00:19:07.282Z,3.40
2023-01-28T00:21:35.734Z,3.40
2023-01-28T00:24:03.770Z,3.40
2023-01-28T00:26:31.784Z,3.40
2023-01-28T00:28:59.763Z,3.40
2023-01-28T00:31:28.712Z,3.30
2023-01-28T00:33:58.003Z,3.40
2023-01-28T00:36:27.881Z,3.30
2023-01-28T00:38:57.565Z,3.30
2023-01-28T00:41:27.434Z,3.30
2023-01-28T00:43:56.092Z,3.40
2023-01-28T00:46:25.272Z,3.40
2023-01-28T00:48:53.494Z,3.40
2023-01-28T00:51:21.839Z,3.40
2023-01-28T00:53:52.480Z,3.40
2023-01-28T00:56:20.720Z,3.40
2023-01-28T00:58:49.113Z,3.40
2023-01-28T01:01:19.347Z,3.30
2023-01-28T01:03:57.451Z,3.40
2023-01-28T01:06:26.037Z,3.30
2023-01-28T01:08:55.363Z,3.30
2023-01-28T01:11:23.342Z,3.30
2023-01-28T01:13:52.523Z,3.30
2023-01-28T01:16:20.506Z,3.30
2023-01-28T01:18:52.157Z,3.20
2023-01-28T01:21:22.227Z,3.20
2023-01-28T01:23:50.217Z,3.20
2023-01-28T01:26:19.939Z,3.20
2023-01-28T01:28:48.280Z,3.20
2023-01-28T01:31:18.413Z,3.20
2023-01-28T01:33:48.639Z,3.20
2023-01-28T01:36:18.510Z,3.10
2023-01-28T01:38:46.780Z,3.20
2023-01-28T01:41:26.106Z,3.10
2023-01-28T01:43:56.640Z,3.10
2023-01-28T01:46:31.560Z,3.10
2023-01-28T01:49:09.314Z,3.10
2023-01-28T01:51:38.397Z,3.10
2023-01-28T01:54:07.001Z,3.10
2023-01-28T01:56:41.106Z,3.10
2023-01-28T01:59:12.202Z,3.10
2023-01-28T02:01:40.635Z,3.00
2023-01-28T02:04:14.082Z,3.00
2023-01-28T02:06:42.833Z,3.00
2023-01-28T02:09:24.462Z,3.00
2023-01-28T02:11:56.049Z,3.00
2023-01-28T02:14:31.042Z,3.00
2023-01-28T02:17:00.649Z,3.00
2023-01-28T02:19:36.883Z,2.90
2023-01-28T02:22:41.677Z,2.90
2023-01-28T02:25:39.073Z,2.90
2023-01-28T02:28:25.817Z,2.90
2023-01-28T02:30:59.644Z,2.90
2023-01-28T02:33:34.750Z,2.90
2023-01-28T02:36:11.076Z,2.90
2023-01-28T02:38:43.767Z,2.80
2023-01-28T02:41:20.781Z,2.80
2023-01-28T02:43:51.700Z,2.80
2023-01-28T02:46:41.541Z,2.70
2023-01-28T02:49:13.076Z,2.70
2023-01-28T02:51:53.924Z,2.70
2023-01-28T02:54:31.121Z,2.60
2023-01-28T02:57:08.939Z,2.60
2023-01-28T02:59:43.546Z,2.60
2023-01-28T03:02:21.375Z,2.50
2023-01-28T03:04:55.833Z,2.50
2023-01-28T03:07:27.937Z,2.50
2023-01-28T03:09:58.890Z,2.50
2023-01-28T03:12:47.377Z,2.40
2023-01-28T03:15:37.302Z,2.40
2023-01-28T03:18:27.107Z,2.40
2023-01-28T03:21:20.649Z,2.50
2023-01-28T03:24:12.878Z,2.50
2023-01-28T03:27:03.756Z,2.40
2023-01-28T03:29:51.666Z,2.40
2023-01-28T03:32:42.031Z,2.40
2023-01-28T03:35:29.057Z,2.40
2023-01-28T03:37:59.991Z,2.40
2023-01-28T03:40:29.692Z,2.40
2023-01-28T03:42:57.750Z,2.40
2023-01-28T03:45:35.901Z,2.50
2023-01-28T03:48:08.019Z,2.40
2023-01-28T03:50:36.075Z,2.40
2023-01-28T03:53:16.433Z,2.40
2023-01-28T03:55:54.103Z,2.40
2023-01-28T03:58:23.012Z,2.40
2023-01-28T04:00:52.164Z,2.40
2023-01-28T04:03:22.695Z,2.40
2023-01-28T04:06:02.909Z,2.40
2023-01-28T04:08:54.471Z,2.40
2023-01-28T04:11:45.951Z,2.30
2023-01-28T04:14:18.805Z,2.30
2023-01-28T04:16:54.863Z,2.30
2023-01-28T04:19:26.036Z,2.30
2023-01-28T04:21:56.752Z,2.20
2023-01-28T04:24:25.811Z,2.30
2023-01-28T04:26:56.417Z,2.30
2023-01-28T04:29:25.640Z,2.30
2023-01-28T04:31:56.355Z,2.20
2023-01-28T04:34:37.643Z,2.30
2023-01-28T04:37:30.591Z,2.30
2023-01-28T04:39:58.629Z,2.30
2023-01-28T04:42:42.493Z,2.30
2023-01-28T04:45:25.210Z,2.20
2023-01-28T04:48:13.201Z,2.20
2023-01-28T04:51:08.785Z,2.20
2023-01-28T04:53:42.777Z,2.20
2023-01-28T04:56:25.960Z,2.20
2023-01-28T04:58:54.132Z,2.30
2023-01-28T05:01:22.180Z,2.20
2023-01-28T05:03:50.204Z,2.20
2023-01-28T05:06:30.274Z,2.20
2023-01-28T05:09:01.888Z,2.20
2023-01-28T05:11:31.255Z,2.20
2023-01-28T05:14:03.513Z,2.10
2023-01-28T05:16:39.115Z,2.20
2023-01-28T05:19:07.658Z,2.10
2023-01-28T05:21:41.254Z,2.20
2023-01-28T05:24:24.528Z,2.10
2023-01-28T05:26:52.529Z,2.10
2023-01-28T05:29:20.604Z,2.10
2023-01-28T05:31:48.965Z,2.20
2023-01-28T05:34:17.695Z,2.10
2023-01-28T05:36:47.404Z,2.10
2023-01-28T05:39:28.484Z,2.10
2023-01-28T05:41:56.552Z,2.10
2023-01-28T05:44:25.045Z,2.10
2023-01-28T05:47:15.225Z,2.10
2023-01-28T05:49:52.043Z,2.10
2023-01-28T05:52:36.907Z,2.10
2023-01-28T05:55:07.727Z,2.10
2023-01-28T05:57:35.682Z,2.10
2023-01-28T06:00:05.556Z,2.20
2023-01-28T06:02:42.730Z,2.10
2023-01-28T06:05:13.237Z,2.20
2023-01-28T06:07:45.830Z,2.10
2023-01-28T06:10:14.690Z,2.10
2023-01-28T06:12:43.421Z,2.20
2023-01-28T06:15:26.319Z,2.10
2023-01-28T06:18:02.894Z,2.10
2023-01-28T06:20:34.268Z,2.10
2023-01-28T06:23:04.075Z,2.10
2023-01-28T06:25:32.153Z,2.00
2023-01-28T06:28:04.732Z,2.00
2023-01-28T06:30:32.743Z,2.00
2023-01-28T06:33:00.763Z,2.00
2023-01-28T06:35:28.763Z,2.00
2023-01-28T06:37:56.751Z,2.00
2023-01-28T06:40:26.168Z,2.00
2023-01-28T06:42:54.169Z,2.00
2023-01-28T06:45:22.457Z,2.00
2023-01-28T06:47:50.548Z,1.90
2023-01-28T06:50:18.825Z,2.00
2023-01-28T06:52:46.896Z,1.90
2023-01-28T06:55:14.988Z,1.90
2023-01-28T06:57:45.495Z,1.90
2023-01-28T07:00:15.828Z,1.90
2023-01-28T07:02:44.347Z,1.90
2023-01-28T07:05:12.656Z,1.90
2023-01-28T07:07:42.025Z,1.90
2023-01-28T07:10:11.641Z,1.90
2023-01-28T07:12:40.206Z,1.90
2023-01-28T07:15:11.873Z,1.90
2023-01-28T07:17:41.259Z,1.90
2023-01-28T07:20:11.930Z,1.90
2023-01-28T07:22:41.330Z,1.90
2023-01-28T07:25:10.916Z,1.90
2023-01-28T07:27:38.962Z,1.90
2023-01-28T07:30:09.760Z,1.90
2023-01-28T07:32:37.738Z,1.90
2023-01-28T07:35:06.386Z,1.90
2023-01-28T07:37:34.377Z,1.90
2023-01-28T07:40:02.347Z,1.90
2023-01-28T07:42:30.326Z,1.90
2023-01-28T07:45:02.409Z,1.80
2023-01-28T07:47:31.816Z,1.80
2023-01-28T07:49:59.882Z,1.80
2023-01-28T07:52:27.828Z,1.80
2023-01-28T07:54:55.863Z,1.80
2023-01-28T07:57:24.235Z,1.80
2023-01-28T07:59:52.344Z,1.80
2023-01-28T08:02:20.377Z,1.80
2023-01-28T08:04:50.172Z,1.90
2023-01-28T08:07:18.497Z,1.90
2023-01-28T08:09:46.485Z,2.10
2023-01-28T08:12:14.531Z,2.10
2023-01-28T08:14:42.598Z,2.10
2023-01-28T08:17:10.538Z,2.10
2023-01-28T08:19:38.517Z,2.10
2023-01-28T08:22:07.849Z,2.10
2023-01-28T08:24:35.816Z,2.10
2023-01-28T08:27:04.654Z,2.20
2023-01-28T08:29:33.442Z,2.20
2023-01-28T08:32:01.363Z,2.30
2023-01-28T08:34:29.373Z,2.30
2023-01-28T08:36:57.456Z,2.30
2023-01-28T08:39:26.855Z,2.30
2023-01-28T08:41:54.791Z,2.30
2023-01-28T08:44:22.790Z,2.30
2023-01-28T08:46:50.760Z,2.30
2023-01-28T08:49:18.822Z,2.40
2023-01-28T08:51:46.844Z,2.40
2023-01-28T08:54:14.969Z,2.30
2023-01-28T08:56:44.944Z,2.40
2023-01-28T08:59:13.011Z,2.40
2023-01-28T09:01:41.019Z,2.40
2023-01-28T09:04:09.143Z,2.40
2023-01-28T09:06:37.142Z,2.40
2023-01-28T09:09:05.488Z,2.40
2023-01-28T09:11:33.516Z,2.40
2023-01-28T09:14:02.858Z,2.40
2023-01-28T09:16:30.801Z,2.40
2023-01-28T09:18:58.781Z,2.40
2023-01-28T09:21:26.711Z,2.40
2023-01-28T09:23:56.831Z,2.40
2023-01-28T09:26:25.174Z,2.40
2023-01-28T09:28:53.122Z,2.40
2023-01-28T09:31:22.602Z,2.50
2023-01-28T09:33:56.528Z,2.50
2023-01-28T09:36:24.739Z,2.50
2023-01-28T09:38:53.403Z,2.40
2023-01-28T09:41:27.406Z,2.40
2023-01-28T09:44:05.611Z,2.40
2023-01-28T09:46:37.768Z,2.40
2023-01-28T09:49:16.933Z,2.30
2023-01-28T09:51:49.873Z,2.40
2023-01-28T09:54:27.930Z,2.50
2023-01-28T09:57:05.242Z,2.50
2023-01-28T09:59:36.295Z,2.50
2023-01-28T10:02:23.379Z,2.50
2023-01-28T10:04:59.771Z,2.60
2023-01-28T10:07:37.349Z,2.60
2023-01-28T10:10:12.278Z,2.60
2023-01-28T10:13:04.950Z,2.60
2023-01-28T10:16:08.718Z,2.60
2023-01-28T10:18:45.301Z,2.60
2023-01-28T10:21:19.781Z,2.70
2023-01-28T10:23:55.487Z,2.70
2023-01-28T10:26:25.463Z,2.70
2023-01-28T10:28:58.800Z,2.80
2023-01-28T10:31:33.195Z,2.90
2023-01-28T10:34:04.410Z,3.00
2023-01-28T10:36:32.401Z,3.00
2023-01-28T10:39:00.456Z,3.20
2023-01-28T10:41:28.467Z,3.10
2023-01-28T10:43:58.489Z,3.10
2023-01-28T10:46:31.329Z,3.20
2023-01-28T10:49:07.176Z,3.10
2023-01-28T10:51:37.535Z,3.10
2023-01-28T10:54:22.022Z,3.10
2023-01-28T10:56:53.135Z,3.00
2023-01-28T10:59:24.484Z,2.80
2023-01-28T11:01:54.426Z,2.90
2023-01-28T11:04:27.974Z,2.80
2023-01-28T11:07:01.197Z,2.90
2023-01-28T11:09:31.853Z,2.90
2023-01-28T11:12:00.414Z,2.90
2023-01-28T11:14:29.074Z,2.90
2023-01-28T11:16:59.386Z,2.70
2023-01-28T11:19:35.841Z,2.80
2023-01-28T11:22:04.398Z,2.70
2023-01-28T11:24:34.339Z,2.60
2023-01-28T11:27:13.458Z,2.70
2023-01-28T11:29:42.730Z,2.50
2023-01-28T11:32:19.172Z,2.60
2023-01-28T11:34:53.598Z,2.40
2023-01-28T11:37:23.512Z,2.40
2023-01-28T11:40:02.732Z,2.40
2023-01-28T11:42:32.415Z,2.50
2023-01-28T11:45:00.453Z,2.50
2023-01-28T11:47:41.376Z,2.60
2023-01-28T11:50:33.196Z,2.70
2023-01-28T11:53:16.751Z,2.60
2023-01-28T11:55:55.692Z,2.60
2023-01-28T11:58:38.685Z,2.50
2023-01-28T12:01:13.245Z,2.50
2023-01-28T12:04:02.783Z,2.60
2023-01-28T12:06:52.304Z,2.60
2023-01-28T12:09:29.006Z,2.60
2023-01-28T12:12:12.853Z,2.60
2023-01-28T12:14:58.950Z,2.60
2023-01-28T12:17:39.197Z,2.70
2023-01-28T12:20:18.696Z,2.70
2023-01-28T12:23:22.025Z,2.80
2023-01-28T12:26:07.020Z,2.70
2023-01-28T12:28:58.738Z,2.70
2023-01-28T12:32:08.108Z,2.80
2023-01-28T12:34:55.168Z,2.90
2023-01-28T12:37:33.111Z,3.00
2023-01-28T12:40:17.084Z,3.10
2023-01-28T12:42:52.894Z,3.20
2023-01-28T12:45:28.730Z,3.00
2023-01-28T12:48:02.254Z,3.20
2023-01-28T12:50:34.582Z,3.40
2023-01-28T12:53:10.580Z,3.60
2023-01-28T12:55:43.433Z,3.80
2023-01-28T12:58:19.314Z,4.00
2023-01-28T13:00:51.584Z,4.20
2023-01-28T13:03:27.915Z,4.00
2023-01-28T13:06:00.063Z,3.90
2023-01-28T13:08:29.653Z,3.80
2023-01-28T13:10:59.847Z,3.50
2023-01-28T13:13:33.564Z,3.40
2023-01-28T13:16:02.857Z,3.00
2023-01-28T13:18:36.194Z,3.00
2023-01-28T13:21:06.472Z,2.90
2023-01-28T13:23:42.870Z,3.00
2023-01-28T13:26:27.595Z,3.00
2023-01-28T13:29:10.641Z,2.90
2023-01-28T13:31:41.123Z,2.80
2023-01-28T13:34:26.573Z,2.80
2023-01-28T13:36:55.494Z,2.80
2023-01-28T13:39:26.143Z,2.90
2023-01-28T13:41:56.535Z,2.90
2023-01-28T13:44:31.410Z,2.90
2023-01-28T13:47:01.943Z,2.80
2023-01-28T13:49:34.708Z,2.80
2023-01-28T13:52:09.869Z,2.90
2023-01-28T13:54:41.816Z,2.90
2023-01-28T13:57:39.411Z,2.90
2023-01-28T14:00:23.279Z,2.80
2023-01-28T14:03:39.477Z,2.70
2023-01-28T14:06:29.778Z,2.90
2023-01-28T14:09:13.524Z,2.90
2023-01-28T14:12:09.011Z,3.00
2023-01-28T14:15:01.399Z,3.10
2023-01-28T14:17:43.161Z,3.00
2023-01-28T14:20:19.423Z,2.90
2023-01-28T14:22:47.945Z,2.80
2023-01-28T14:25:19.837Z,2.80
2023-01-28T14:27:53.649Z,2.90
2023-01-28T14:30:26.417Z,2.90
2023-01-28T14:32:56.508Z,2.90
2023-01-28T14:35:29.479Z,3.00
2023-01-28T14:37:58.813Z,3.00
2023-01-28T14:40:29.557Z,2.60
2023-01-28T14:42:58.934Z,2.60
2023-01-28T14:45:48.432Z,2.40
2023-01-28T14:48:26.313Z,2.40
2023-01-28T14:51:05.919Z,2.40
2023-01-28T14:53:49.091Z,2.60
2023-01-28T14:56:25.540Z,2.60
2023-01-28T14:58:59.806Z,2.40
2023-01-28T15:01:30.408Z,2.30
2023-01-28T15:03:59.862Z,2.20
2023-01-28T15:06:35.692Z,2.20
2023-01-28T15:09:13.718Z,2.00
2023-01-28T15:11:45.213Z,1.90
2023-01-28T15:14:20.160Z,1.80
2023-01-28T15:16:50.156Z,1.80
2023-01-28T15:19:26.877Z,1.80
2023-01-28T15:21:57.604Z,1.80
2023-01-28T15:24:26.041Z,1.60
2023-01-28T15:26:54.258Z,1.70
2023-01-28T15:29:25.986Z,1.70
2023-01-28T15:31:54.589Z,1.50
2023-01-28T15:34:30.015Z,1.50
2023-01-28T15:36:58.553Z,1.40
2023-01-28T15:39:28.407Z,1.30
2023-01-28T15:41:59.254Z,1.30
2023-01-28T15:44:33.261Z,1.20
2023-01-28T15:47:03.389Z,1.20
2023-01-28T15:49:36.864Z,1.10
2023-01-28T15:52:05.449Z,1.00
2023-01-28T15:54:33.488Z,1.00
2023-01-28T15:57:11.317Z,0.90
2023-01-28T15:59:39.342Z,0.80
2023-01-28T16:02:22.120Z,0.70
2023-01-28T16:05:02.764Z,0.60
2023-01-28T16:07:33.062Z,0.50
2023-01-28T16:10:04.649Z,0.40
2023-01-28T16:12:32.624Z,0.30
2023-01-28T16:15:03.025Z,0.30
2023-01-28T16:17:39.431Z,0.20
2023-01-28T16:20:19.634Z,0.10
2023-01-28T16:22:47.772Z,0.10
2023-01-28T16:25:28.496Z,0.10
2023-01-28T16:27:56.830Z,0.10
2023-01-28T16:30:25.063Z,0.10
2023-01-28T16:32:55.345Z,0.00
2023-01-28T16:35:34.420Z,0.00
2023-01-28T16:38:16.668Z,-0.10
2023-01-28T16:40:45.571Z,-0.10
2023-01-28T16:43:15.892Z,-0.20
2023-01-28T16:45:44.378Z,-0.20
2023-01-28T16:48:12.491Z,-0.30
2023-01-28T16:50:43.607Z,-0.40
2023-01-28T16:53:21.161Z,-0.40
2023-01-28T16:55:51.008Z,-0.50
2023-01-28T16:58:23.342Z,-0.60
2023-01-28T17:00:51.358Z,-0.70
2023-01-28T17:03:19.794Z,-0.90
2023-01-28T17:05:49.225Z,-0.60
2023-01-28T17:08:17.231Z,-0.70
2023-01-28T17:10:45.809Z,-0.70
2023-01-28T17:13:13.793Z,-0.90
2023-01-28T17:15:42.669Z,-1.10
2023-01-28T17:18:11.322Z,-1.20
2023-01-28T17:20:40.394Z,-1.20
2023-01-28T17:23:13.364Z,-1.30
2023-01-28T17:25:41.741Z,-1.20
2023-01-28T17:28:11.247Z,-1.00
2023-01-28T17:30:41.570Z,-1.00
2023-01-28T17:33:11.300Z,-0.90
2023-01-28T17:35:39.357Z,-1.00
2023-01-28T17:38:08.745Z,-1.10
2023-01-28T17:40:36.914Z,-1.20
2023-01-28T17:43:04.903Z,-1.20
2023-01-28T17:45:33.267Z,-1.20
2023-01-28T17:48:01.304Z,-1.20
2023-01-28T17:50:29.337Z,-1.10
2023-01-28T17:52:58.505Z,-1.20
2023-01-28T17:55:27.938Z,-1.40
2023-01-28T17:57:55.948Z,-1.50
2023-01-28T18:00:26.175Z,-1.50
2023-01-28T18:02:54.249Z,-1.50
2023-01-28T18:05:22.884Z,-1.50
2023-01-28T18:07:52.127Z,-1.60
2023-01-28T18:10:20.489Z,-1.60
2023-01-28T18:12:49.904Z,-1.60
2023-01-28T18:15:18.337Z,-1.60
2023-01-28T18:17:46.561Z,-1.50
2023-01-28T18:20:14.644Z,-1.50
2023-01-28T18:22:42.633Z,-1.50
2023-01-28T18:25:16.040Z,-1.50
2023-01-28T18:27:44.534Z,-1.50
2023-01-28T18:30:16.310Z,-1.40
2023-01-28T18:32:44.381Z,-1.60
2023-01-28T18:35:12.559Z,-1.80
2023-01-28T18:37:41.115Z,-1.70
2023-01-28T18:40:10.485Z,-1.80
2023-01-28T18:42:38.490Z,-1.90
2023-01-28T18:45:07.656Z,-2.00
2023-01-28T18:47:37.028Z,-2.00
2023-01-28T18:50:05.853Z,-1.90
2023-01-28T18:52:33.841Z,-1.70
2023-01-28T18:55:01.820Z,-1.80
2023-01-28T18:57:30.144Z,-1.90
2023-01-28T18:59:58.183Z,-1.90
2023-01-28T19:02:26.272Z,-1.70
2023-01-28T19:04:57.174Z,-1.70
2023-01-28T19:07:25.316Z,-1.70
2023-01-28T19:09:53.314Z,-1.80
2023-01-28T19:12:22.492Z,-1.90
2023-01-28T19:14:50.745Z,-1.90
2023-01-28T19:17:18.766Z,-1.90
2023-01-28T19:19:46.762Z,-1.80
2023-01-28T19:22:16.524Z,-1.80
2023-01-28T19:24:44.803Z,-1.70
2023-01-28T19:27:12.800Z,-1.80
2023-01-28T19:29:40.881Z,-1.80
2023-01-28T19:32:08.885Z,-1.70
2023-01-28T19:34:36.874Z,-1.70
2023-01-28T19:37:04.866Z,-1.80
2023-01-28T19:39:34.261Z,-1.80
2023-01-28T19:42:02.274Z,-1.80
2023-01-28T19:44:30.378Z,-1.90
2023-01-28T19:46:59.339Z,-1.90
2023-01-28T19:49:27.498Z,-2.00
2023-01-28T19:51:55.466Z,-2.10
2023-01-28T19:54:23.425Z,-2.10
2023-01-28T19:56:52.928Z,-2.20
2023-01-28T19:59:20.918Z,-2.20
2023-01-28T20:01:49.055Z,-2.10
2023-01-28T20:04:17.099Z,-2.10
2023-01-28T20:06:45.140Z,-2.20
2023-01-28T20:09:17.162Z,-2.20
2023-01-28T20:11:45.152Z,-2.20
2023-01-28T20:14:16.073Z,-2.20
2023-01-28T20:16:44.107Z,-2.20
2023-01-28T20:19:16.352Z,-2.30
2023-01-28T20:21:44.451Z,-2.30
2023-01-28T20:24:13.483Z,-2.30
2023-01-28T20:26:43.692Z,-2.30
2023-01-28T20:29:15.034Z,-2.40
2023-01-28T20:31:43.429Z,-2.30
2023-01-28T20:34:15.298Z,-2.20
2023-01-28T20:36:44.006Z,-2.10
2023-01-28T20:39:12.127Z,-2.00
2023-01-28T20:41:40.150Z,-1.90
2023-01-28T20:44:08.219Z,-2.00
2023-01-28T20:46:38.827Z,-2.00
2023-01-28T20:49:07.182Z,-2.10
2023-01-28T20:51:36.192Z,-2.10
2023-01-28T20:54:04.896Z,-2.20
2023-01-28T20:56:33.187Z,-2.20
2023-01-28T20:59:03.378Z,-2.20
2023-01-28T21:01:34.344Z,-2.30
2023-01-28T21:04:04.212Z,-2.30
2023-01-28T21:06:32.382Z,-2.40
2023-01-28T21:09:00.865Z,-2.50
2023-01-28T21:11:29.065Z,-2.50
2023-01-28T21:13:57.724Z,-2.50
2023-01-28T21:16:26.198Z,-2.50
2023-01-28T21:18:54.197Z,-2.30
2023-01-28T21:21:26.730Z,-2.30
2023-01-28T21:23:57.641Z,-2.20
2023-01-28T21:26:25.854Z,-2.30
2023-01-28T21:28:53.946Z,-2.40
2023-01-28T21:31:25.214Z,-2.40
2023-01-28T21:33:55.408Z,-2.40
2023-01-28T21:36:26.102Z,-2.40
2023-01-28T21:38:55.325Z,-2.50
2023-01-28T21:41:23.742Z,-2.50
2023-01-28T21:43:53.512Z,-2.40
2023-01-28T21:46:21.674Z,-2.40
2023-01-28T21:48:49.779Z,-2.40
2023-01-28T21:51:35.569Z,-2.40
2023-01-28T21:54:05.916Z,-2.40
2023-01-28T21:56:33.990Z,-2.40
2023-01-28T21:59:19.974Z,-2.40
2023-01-28T22:01:48.658Z,-2.50
2023-01-28T22:04:16.939Z,-2.70
2023-01-28T22:06:45.298Z,-2.60
2023-01-28T22:09:14.813Z,-2.60
2023-01-28T22:11:44.077Z,-2.50
2023-01-28T22:14:12.359Z,-2.60
2023-01-28T22:16:40.681Z,-2.60
2023-01-28T22:19:08.997Z,-2.70
2023-01-28T22:21:41.002Z,-2.60
2023-01-28T22:24:11.305Z,-2.70
2023-01-28T22:26:41.234Z,-2.70
2023-01-28T22:29:09.916Z,-2.60
2023-01-28T22:31:38.349Z,-2.50
2023-01-28T22:34:06.627Z,-2.50
2023-01-28T22:36:35.370Z,-2.50
2023-01-28T22:39:04.399Z,-2.70
2023-01-28T22:41:32.515Z,-2.60
2023-01-28T22:44:03.741Z,-2.60
2023-01-28T22:46:33.346Z,-2.70
2023-01-28T22:49:01.563Z,-2.80
2023-01-28T22:51:32.076Z,-2.70
2023-01-28T22:54:00.437Z,-2.70
2023-01-28T22:56:30.011Z,-2.70
2023-01-28T22:58:59.081Z,-2.80
2023-01-28T23:01:28.758Z,-2.90
2023-01-28T23:03:57.155Z,-2.90
2023-01-28T23:06:27.014Z,-2.90
2023-01-28T23:08:56.190Z,-2.90
2023-01-28T23:11:28.162Z,-2.90
2023-01-28T23:14:16.504Z,-2.80
2023-01-28T23:17:04.145Z,-2.70
2023-01-28T23:19:50.079Z,-2.80
2023-01-28T23:22:39.876Z,-2.80
2023-01-28T23:25:08.657Z,-2.70
2023-01-28T23:27:36.687Z,-2.60
2023-01-28T23:30:05.737Z,-2.50
2023-01-28T23:32:35.053Z,-2.40
2023-01-28T23:35:03.043Z,-2.50
2023-01-28T23:37:30.981Z,-2.50
2023-01-28T23:39:59.816Z,-2.60
2023-01-28T23:42:27.880Z,-2.70
2023-01-28T23:44:55.861Z,-2.70
2023-01-28T23:47:23.897Z,-2.60
2023-01-28T23:49:53.237Z,-2.60
2023-01-28T23:52:21.255Z,-2.60
2023-01-28T23:54:49.304Z,-2.60
2023-01-28T23:57:17.317Z,-2.50
2023-01-28T23:59:45.324Z,-2.60
